• Join FlightAware (Why Join?)
  • Login
  • US Flag 
12:19PM EDT


 

Airport Tracker/Info


-or-


 

Live Flight TrackerFlight Track Log ✈ UAL262 ✈ 24-Jun-2013 ✈ KSEA - KIAD

Flight Track Log - Related Links

Times and Time Zones

All times are in EDT time to prevent confusion due to time zone crossing. See the UAL262 flight status page for this flight to view local times or setup timezone preferences in your user account.

Time Position Orientation Groundspeed Altitude Reporting Facility
EDT Latitude Longitude Course Direction KTS MPH feet Rate Location/Type
04:36AM 47.4239 -122.3100 122° Southeast 178 205 1,400  Level Seattle Center
04:37AM 47.3533 -122.3097 180° South 200 230 3,400 2,100 Climbing Seattle Center
04:38AM 47.3100 -122.2436 134° Southeast 261 300 6,200 2,160 Climbing Seattle Center
04:40AM 47.4674 -121.4072 104° East  Level Estimated
04:40AM 47.3171 -121.9490 90° East  Level Estimated
04:41AM 47.4031 -121.2533 122° Southeast  Level FlightAware Approximate
04:41AM 47.3700 -121.8750 90° East 341 392 12,200  Level Seattle Center
04:42AM 47.3931 -121.7272 77° East 370 426 13,600 1,380 Climbing Seattle Center
04:43AM 47.4189 -121.5661 77° East 404 465 15,100 1,620 Climbing Seattle Center
04:44AM 47.4053 -121.3986 97° East 415 478 16,900 1,740 Climbing Seattle Center
04:45AM 47.3753 -121.2356 105° East 419 482 18,600 1,620 Climbing Seattle Center
04:46AM 47.3458 -121.0661 104° East 428 493 20,200 1,380 Climbing Seattle Center
04:47AM 47.3136 -120.8950 105° East 436 502 21,500 1,140 Climbing Seattle Center
04:48AM 47.2853 -120.7342 105° East 443 510 22,500 1,020 Climbing Seattle Center
04:49AM 47.2514 -120.5569 106° East 450 518 23,600 420 Climbing Seattle Center
04:51AM 47.2048 -120.2741 106° East  Level FlightAware Approximate
04:58AM 47.0309 -119.0153 102° East  Level FlightAware Approximate
04:59AM 47.0052 -118.8358 102° East  Level FlightAware Approximate
05:00AM 46.9796 -118.6563 102° East  Level FlightAware Approximate
05:01AM 46.9598 -118.4763 104° East  Level FlightAware Approximate
05:02AM 46.9294 -118.2986 104° East  Level FlightAware Approximate
05:03AM 46.8986 -118.1211 104° East  Level FlightAware Approximate
05:04AM 46.8710 -117.9428 101° East  Level FlightAware Approximate
05:05AM 46.8464 -117.7635 101° East  Level FlightAware Approximate
05:06AM 46.8215 -117.5843 101° East  Level FlightAware Approximate
05:07AM 46.7914 -117.4070 104° East  Level FlightAware Approximate
05:08AM 46.7598 -117.2303 105° East  Level FlightAware Approximate
05:09AM 46.7335 -117.0528 89° East  Level FlightAware Approximate
05:10AM 46.7345 -116.8704 89° East  Level FlightAware Approximate
05:11AM 46.7352 -116.6879 90° East  Level FlightAware Approximate
05:12AM 46.7357 -116.5055 90° East  Level FlightAware Approximate
05:13AM 46.7358 -116.3230 90° East  Level FlightAware Approximate
05:14AM 46.7356 -116.1406 90° East  Level FlightAware Approximate
05:15AM 46.7352 -115.9581 90° East  Level FlightAware Approximate
05:16AM 46.7344 -115.7756 90° East  Level FlightAware Approximate
05:17AM 46.7334 -115.5932 90° East  Level FlightAware Approximate
05:17AM 46.8611 -115.1147 92° East 492 566 35,000  Level Salt Lake Center
05:18AM 46.7287 -115.4109 92° East  Level FlightAware Approximate
05:19AM 46.7235 -115.2286 92° East  Level FlightAware Approximate
05:19AM 46.8433 -114.6850 93° East 486 559 35,000  Level Seattle Center
05:20AM 46.7181 -115.0464 92° East  Level FlightAware Approximate
05:20AM 46.8358 -114.4903 93° East 484 557 35,000  Level Seattle Center
05:21AM 46.7167 -114.8640 90° East  Level FlightAware Approximate
05:21AM 46.8269 -114.2944 94° East 486 559 35,000  Level Seattle Center
05:22AM 46.7148 -114.6816 92° East  Level FlightAware Approximate
05:22AM 46.8206 -114.1392 93° East 482 555 35,000  Level Salt Lake Center
05:23AM 46.7106 -114.4994 92° East  Level FlightAware Approximate
05:23AM 46.8117 -113.9461 94° East 480 552 35,000  Level Salt Lake Center
05:24AM 46.7062 -114.3171 92° East  Level FlightAware Approximate
05:24AM 46.8028 -113.7544 94° East 477 549 35,000  Level Salt Lake Center
05:25AM 46.7014 -114.1349 92° East  Level FlightAware Approximate
05:25AM 46.7939 -113.5642 94° East 474 545 35,000  Level Salt Lake Center
05:26AM 46.6965 -113.9527 92° East  Level FlightAware Approximate
05:26AM 46.7831 -113.3764 95° East 469 540 35,000  Level Salt Lake Center
05:27AM 46.7739 -113.1889 94° East 466 536 35,000 -60 Level Salt Lake Center
05:28AM 46.7644 -113.0050 94° East 460 529 34,900  Descending Salt Lake Center
05:29AM 46.7531 -112.8042 95° East 453 521 35,000  Climbing Salt Lake Center
05:30AM 46.7428 -112.6272 95° East 444 511 35,000 -60 Level Salt Lake Center
05:31AM 46.7322 -112.4519 95° East 440 506 34,900  Descending Salt Lake Center
05:32AM 46.7214 -112.2783 95° East 436 502 35,000  Climbing Salt Lake Center
05:33AM 46.7108 -112.1039 95° East 436 502 34,900  Descending Salt Lake Center
05:34AM 46.7003 -111.9303 95° East 435 501 35,000  Climbing Salt Lake Center
05:35AM 46.6872 -111.7553 96° East 436 502 35,000  Level Salt Lake Center
05:36AM 46.6756 -111.5769 95° East 443 510 35,000  Level Salt Lake Center
05:37AM 46.6636 -111.4000 96° East 442 509 35,000  Level Salt Lake Center
05:38AM 46.6508 -111.2211 96° East 446 513 35,000  Level Salt Lake Center
05:39AM 46.6381 -111.0397 96° East 452 520 35,000  Level Salt Lake Center
05:40AM 46.6239 -110.8586 96° East 454 522 35,000  Level Salt Lake Center
05:41AM 46.6103 -110.6797 96° East 449 517 35,000 -60 Level Salt Lake Center
05:42AM 46.5964 -110.5008 96° East 448 516 34,900 -60 Descending Salt Lake Center
05:43AM 46.5822 -110.3192 96° East 452 520 34,900  Level Salt Lake Center
05:44AM 46.5683 -110.1367 96° East 454 522 35,000  Climbing Salt Lake Center
05:45AM 46.5531 -109.9556 97° East 457 526 35,000  Level Salt Lake Center
05:46AM 46.5375 -109.7786 97° East 448 516 35,000  Level Salt Lake Center
05:47AM 46.5228 -109.6028 97° East 444 511 35,000  Level Salt Lake Center
05:48AM 46.5069 -109.3967 96° East 443 510 35,000  Level Salt Lake Center
05:49AM 46.4917 -109.2206 97° East 444 511 35,000  Level Salt Lake Center
05:50AM 46.4742 -109.0317 98° East 442 509 35,000  Level Salt Lake Center
05:51AM 46.4586 -108.8561 97° East 443 510 35,000  Level Salt Lake Center
05:52AM 46.4425 -108.6803 98° East 445 512 35,000  Level Salt Lake Center
05:53AM 46.4253 -108.5058 98° East 442 509 35,000  Level Salt Lake Center
05:54AM 46.4083 -108.3297 98° East 445 512 35,000  Level Salt Lake Center
05:55AM 46.3911 -108.1544 98° East 444 511 35,000  Level Salt Lake Center
05:56AM 46.3731 -107.9794 98° East 445 512 35,000  Level Salt Lake Center
05:57AM 46.3533 -107.7875 98° East 449 517 35,000  Level Salt Lake Center
05:58AM 46.3358 -107.6097 98° East 450 518 35,000  Level Salt Lake Center
05:59AM 46.3164 -107.4300 99° East 457 526 35,100  Climbing Salt Lake Center
06:00AM 46.3011 -107.2811 98° East 457 526 35,000 -60 Descending Salt Lake Center
06:01AM 46.2750 -107.0628 100° East 460 529 35,000  Level Salt Lake Center
06:02AM 46.2522 -106.8786 100° East 464 534 35,000  Level Salt Lake Center
06:03AM 46.2333 -106.6975 99° East 463 533 35,000  Level Salt Lake Center
06:04AM 46.2128 -106.5161 99° East 462 532 35,000  Level Salt Lake Center
06:05AM 46.1936 -106.3331 99° East 462 532 35,000  Level Salt Lake Center
06:06AM 46.1728 -106.1494 99° East 464 534 35,000  Level Salt Lake Center
06:07AM 46.1508 -105.9661 100° East 464 534 35,000  Level Salt Lake Center
06:08AM 46.1292 -105.7811 100° East 466 536 35,000  Level Salt Lake Center
06:09AM 46.1072 -105.5950 100° East 469 540 35,000  Level Salt Lake Center
06:10AM 46.0842 -105.4108 100° East 469 540 35,000  Level Salt Lake Center
06:11AM 46.0617 -105.2258 100° East 470 541 35,000  Level Salt Lake Center
06:12AM 46.0378 -105.0392 100° East 472 543 35,000  Level Salt Lake Center
06:13AM 46.0139 -104.8489 100° East 476 548 35,000  Level Salt Lake Center
06:14AM 45.9892 -104.6614 101° East 479 551 35,000  Level Salt Lake Center
06:15AM 45.9650 -104.4742 100° East 479 551 35,000  Level Salt Lake Center
06:16AM 45.9408 -104.2881 101° East 479 551 35,000  Level Salt Lake Center
06:17AM 45.9150 -104.1011 101° East 479 551 35,000 -60 Level Salt Lake Center
06:18AM 45.8900 -103.9158 101° East 478 550 34,900 -60 Descending Salt Lake Center
06:19AM 45.8647 -103.7306 101° East 476 548 34,900  Level Salt Lake Center
06:20AM 45.8389 -103.5461 101° East 476 548 34,900  Level Salt Lake Center
06:21AM 45.8122 -103.3589 101° East 477 549 35,000  Climbing Salt Lake Center
06:22AM 45.7914 -103.2150 102° East 482 555 35,000  Level Minneapolis Center
06:23AM 45.7647 -103.0278 101° East 482 555 35,000 -60 Level Minneapolis Center
06:24AM 45.7367 -102.8392 102° East 485 558 34,900  Descending Minneapolis Center
06:25AM 45.7086 -102.6519 102° East 488 562 35,000  Climbing Minneapolis Center
06:26AM 45.6744 -102.4239 102° East 489 563 35,000  Level Minneapolis Center
06:27AM 45.6422 -102.2353 104° East 490 564 35,000  Level Minneapolis Center
06:28AM 45.6133 -102.0447 102° East 490 564 35,000  Level Minneapolis Center
06:29AM 45.5836 -101.8544 103° East 491 565 35,000  Level Minneapolis Center
06:30AM 45.5483 -101.6256 102° East 492 566 35,000  Level Minneapolis Center
06:31AM 45.5189 -101.4300 102° East 497 572 35,000  Level Minneapolis Center
06:32AM 45.4883 -101.2433 103° East 493 567 35,000  Level Minneapolis Center
06:33AM 45.4592 -101.0586 103° East 485 558 35,000  Level Minneapolis Center
06:34AM 45.4281 -100.8711 103° East 484 557 35,000  Level Minneapolis Center
06:35AM 45.3958 -100.6842 104° East 486 559 35,000  Level Minneapolis Center
06:36AM 45.3644 -100.4981 103° East 485 558 35,000  Level Minneapolis Center
06:37AM 45.3325 -100.3125 104° East 483 556 35,000  Level Minneapolis Center
06:38AM 45.3008 -100.1267 104° East 480 552 35,000  Level Minneapolis Center
06:39AM 45.2683 -99.9386 104° East 483 556 35,000  Level Minneapolis Center
06:40AM 45.2342 -99.7472 104° East 489 563 35,000  Level Minneapolis Center
06:41AM 45.2006 -99.5597 104° East 487 560 35,000  Level Minneapolis Center
06:42AM 45.1658 -99.3744 105° East 485 558 35,000  Level Minneapolis Center
06:43AM 45.1328 -99.1900 104° East 483 556 35,000  Level Minneapolis Center
06:44AM 45.0986 -99.0061 105° East 482 555 35,000  Level Minneapolis Center
06:45AM 45.0644 -98.8242 105° East 480 552 35,000  Level Minneapolis Center
06:46AM 45.0314 -98.6442 105° East 477 549 35,000  Level Minneapolis Center
06:47AM 44.9975 -98.4661 105° East 472 543 35,000  Level Minneapolis Center
06:48AM 44.9617 -98.2806 105° East 471 542 35,000  Level Minneapolis Center
06:49AM 44.9278 -98.1031 105° East 471 542 35,000  Level Minneapolis Center
06:50AM 44.8919 -97.9253 106° East 471 542 35,000  Level Minneapolis Center
06:51AM 44.8569 -97.7469 105° East 473 544 35,000  Level Minneapolis Center
06:52AM 44.8211 -97.5681 106° East 475 547 35,100  Climbing Minneapolis Center
06:53AM 44.7856 -97.3894 106° East 474 545 35,100 -60 Level Minneapolis Center
06:54AM 44.7500 -97.2117 106° East 474 545 35,000 -60 Descending Minneapolis Center
06:56AM 44.7125 -97.0358 107° East 470 541 35,000  Level Minneapolis Center
06:57AM 44.6697 -96.8256 106° East 468 539 35,000  Level Minneapolis Center
06:58AM 44.6331 -96.6514 106° East 466 536 35,000  Level Minneapolis Center
06:59AM 44.5967 -96.4772 106° East 465 535 35,000  Level Minneapolis Center
07:00AM 44.5608 -96.3022 106° East 465 535 35,000  Level Minneapolis Center
07:01AM 44.5225 -96.1261 107° East 468 539 35,000  Level Minneapolis Center
07:02AM 44.4850 -95.9497 107° East 468 539 35,100  Climbing Minneapolis Center
07:03AM 44.4478 -95.7767 107° East 464 534 35,000 -60 Descending Minneapolis Center
07:04AM 44.4100 -95.6036 107° East 463 533 35,000  Level Minneapolis Center
07:05AM 44.3719 -95.4325 107° East 461 531 35,000  Level Minneapolis Center
07:06AM 44.3322 -95.2578 108° East 468 539 35,000  Level Minneapolis Center
07:07AM 44.2936 -95.0839 107° East 468 539 35,000  Level Minneapolis Center
07:08AM 44.2553 -94.9106 107° East 467 537 35,000  Level Minneapolis Center
07:09AM 44.2067 -94.6997 108° East 473 544 35,000  Level Minneapolis Center
07:10AM 44.1683 -94.5358 108° East 475 547 35,000  Level Minneapolis Center
07:11AM 44.1278 -94.3594 108° East 479 551 35,000  Level Minneapolis Center
07:12AM 44.0867 -94.1822 108° East 483 556 35,000  Level Minneapolis Center
07:13AM 44.0436 -94.0064 109° East 485 558 35,000  Level Minneapolis Center
07:14AM 44.0019 -93.8311 108° East 483 556 35,100  Climbing Minneapolis Center
07:15AM 43.9600 -93.6578 109° East 479 551 35,000 -60 Descending Minneapolis Center
07:16AM 43.9186 -93.4844 108° East 478 550 35,000  Level Minneapolis Center
07:17AM 43.8772 -93.3133 108° East 473 544 35,000  Level Minneapolis Center
07:18AM 43.8267 -93.1089 109° East 471 542 35,000  Level Minneapolis Center
07:19AM 43.7914 -92.9639 109° East 471 542 35,000  Level Minneapolis Center
07:20AM 43.7489 -92.7942 109° East 471 542 35,100  Climbing Minneapolis Center
07:21AM 43.6983 -92.5914 109° East 468 539 35,000 -60 Descending Minneapolis Center
07:22AM 43.6556 -92.4258 110° East 463 533 35,000  Level Minneapolis Center
07:23AM 43.6156 -92.2556 108° East 465 535 35,000  Level Minneapolis Center
07:24AM 43.5733 -92.0911 109° East 460 529 35,000  Level Minneapolis Center
07:25AM 43.5294 -91.9250 110° East 464 534 35,000  Level Minneapolis Center
07:26AM 43.4861 -91.7589 110° East 462 532 35,000  Level Minneapolis Center
07:27AM 43.4428 -91.5889 109° East 468 539 35,000  Level Minneapolis Center
07:28AM 43.3981 -91.4194 110° East 472 543 35,000  Level Minneapolis Center
07:29AM 43.3536 -91.2511 110° East 471 542 35,000  Level Minneapolis Center
07:30AM 43.3078 -91.0822 110° East 472 543 35,000  Level Minneapolis Center
07:31AM 43.2722 -90.9464 110° East 474 545 35,000  Level Minneapolis Center
07:32AM 43.2239 -90.7394 108° East 477 549 35,100  Climbing Chicago Center
07:33AM 43.2156 -90.5517 93° East 496 571 35,100 -60 Level Chicago Center
07:34AM 43.2144 -90.3706 90° East 481 554 35,000 -60 Descending Chicago Center
07:35AM 43.2092 -90.1867 92° East 485 558 35,000  Level Chicago Center
07:36AM 43.2033 -89.9692 92° East 489 563 35,000  Level Chicago Center
07:37AM 43.1956 -89.7839 93° East 486 559 35,000  Level Chicago Center
07:38AM 43.1606 -89.6067 105° East 480 552 35,000  Level Chicago Center
07:39AM 43.1119 -89.4419 112° Southeast 468 539 35,000  Level Chicago Center
07:40AM 43.0614 -89.2769 113° Southeast 471 542 35,000  Level Chicago Center
07:41AM 43.0083 -89.1072 113° Southeast 484 557 35,000  Level Chicago Center
07:42AM 42.9569 -88.9428 113° Southeast 474 545 35,000  Level Chicago Center
07:43AM 42.8975 -88.7592 114° Southeast 457 526 35,000  Level Chicago Center
07:44AM 42.8481 -88.6031 113° Southeast 452 520 35,000  Level Chicago Center
07:45AM 42.7986 -88.4489 114° Southeast 447 514 35,000  Level Chicago Center
07:46AM 42.7486 -88.2969 114° Southeast 442 509 35,000  Level Chicago Center
07:47AM 42.6986 -88.1403 113° Southeast 448 516 35,000  Level Chicago Center
07:48AM 42.6486 -87.9847 114° Southeast 450 518 35,000  Level Chicago Center
07:49AM 42.5858 -87.8353 120° Southeast 456 525 35,100  Climbing Chicago Center
07:50AM 42.4803 -87.6994 136° Southeast 454 522 35,100 -60 Level Chicago Center
07:51AM 42.3825 -87.5953 142° Southeast 450 518 35,000  Descending Chicago Center
07:52AM 42.2858 -87.4864 140° Southeast 453 521 35,100  Climbing Chicago Center
07:53AM 42.1875 -87.3808 141° Southeast 453 521 35,000 -60 Descending Chicago Center
07:54AM 42.0914 -87.2775 141° Southeast 446 513 35,000  Level Chicago Center
07:55AM 41.9967 -87.1622 138° Southeast 456 525 35,000  Level Chicago Center
07:56AM 41.9011 -87.0464 138° Southeast 462 532 35,000  Level Chicago Center
07:58AM 41.8053 -86.9336 139° Southeast 461 531 35,100  Climbing Chicago Center
07:59AM 41.6878 -86.7969 139° Southeast 465 535 35,100 -60 Level Chicago Center
08:00AM 41.6039 -86.6986 139° Southeast 459 528 35,000 -60 Descending Chicago Center
08:01AM 41.5083 -86.5875 139° Southeast 458 527 35,000  Level Chicago Center
08:02AM 41.4461 -86.4011 114° Southeast 462 532 35,000  Level Chicago Center
08:03AM 41.4044 -86.2378 109° East 468 539 35,000  Level Chicago Center
08:04AM 41.3631 -86.0739 109° East 471 542 35,000  Level Chicago Center
08:05AM 41.3211 -85.9108 109° East 469 540 35,000  Level Chicago Center
08:06AM 41.2775 -85.7489 110° East 469 540 35,000  Level Chicago Center
08:07AM 41.2353 -85.5822 109° East 479 551 35,000  Level Chicago Center
08:08AM 41.1839 -85.3869 109° East 475 547 35,000  Level Chicago Center
08:09AM 41.1408 -85.2192 109° East 485 558 35,000  Level Chicago Center
08:10AM 41.0967 -85.0544 110° East 483 556 35,000  Level Chicago Center
08:12AM 41.0094 -84.7328 110° East 467 537 35,000  Level Chicago Center
08:13AM 40.9572 -84.5394 110° East 468 539 35,000  Level Chicago Center
08:14AM 40.9125 -84.3750 110° East 475 547 35,000  Level Chicago Center
08:15AM 40.8678 -84.2128 110° East 473 544 35,000  Level Chicago Center
08:16AM 40.8214 -84.0492 110° East 476 548 35,000  Level Chicago Center
08:17AM 40.7769 -83.8864 110° East 473 544 35,100  Climbing Chicago Center
08:18AM 40.7311 -83.7225 110° East 477 549 35,000 -60 Descending Chicago Center
08:19AM 40.6847 -83.5603 111° Southeast 476 548 35,000  Level Chicago Center
08:20AM 40.6186 -83.3278 110° East 480 552 35,000  Level Indianapolis Center
08:21AM 40.5683 -83.1528 111° Southeast 479 551 35,000  Level Indianapolis Center
08:22AM 40.5200 -82.9875 111° Southeast 480 552 35,000  Level Indianapolis Center
08:23AM 40.4747 -82.8319 111° Southeast 476 548 35,000  Level Indianapolis Center
08:25AM 40.4250 -82.6600 111° Southeast 480 552 35,000  Level Indianapolis Center
08:26AM 40.3767 -82.4967 111° Southeast 479 551 35,000  Level Indianapolis Center
08:27AM 40.3281 -82.3336 111° Southeast 479 551 35,000  Level Indianapolis Center
08:28AM 40.2706 -82.1442 112° Southeast 477 549 35,000  Level Indianapolis Center
08:29AM 40.2233 -81.9833 111° Southeast 476 548 35,000  Level Indianapolis Center
08:30AM 40.1728 -81.8194 112° Southeast 480 552 35,000  Level Indianapolis Center
08:31AM 40.1222 -81.6556 112° Southeast 481 554 35,000  Level Indianapolis Center
08:32AM 40.0739 -81.4928 111° Southeast 480 552 35,000  Level Indianapolis Center
08:33AM 40.0236 -81.3300 112° Southeast 479 551 35,000  Level Indianapolis Center
08:34AM 39.9758 -81.1694 111° Southeast 476 548 35,000  Level Indianapolis Center
08:35AM 39.9247 -80.9878 110° East 481 554 35,000  Level Indianapolis Center
08:36AM 39.8778 -80.8256 111° Southeast 480 552 35,000  Level Indianapolis Center
08:36AM 39.8544 -80.7344 108° East 476 548 35,000  Level Cleveland Center
08:37AM 39.8067 -80.5694 111° Southeast 476 548 35,000 -540 Level Cleveland Center
08:38AM 39.7606 -80.4103 111° Southeast 476 548 34,000 -1,320 Descending Cleveland Center
08:40AM 39.6792 -80.1397 111° Southeast 487 560 31,700 -1,380 Descending Indianapolis Center
08:41AM 39.6561 -80.0553 110° East 473 544 31,000 -1,260 Descending Washington Center
08:42AM 39.6058 -79.8878 111° Southeast 486 559 29,600 -1,440 Descending Washington Center
08:43AM 39.5556 -79.7178 111° Southeast 491 565 28,200 -1,320 Descending Washington Center
08:44AM 39.5089 -79.5539 110° East 491 565 27,100 -900 Descending Washington Center
08:45AM 39.4728 -79.3825 105° East 496 571 26,400 -1,440 Descending Washington Center
08:46AM 39.4428 -79.2089 103° East 491 565 24,200 -1,920 Descending Washington Center
08:47AM 39.4139 -79.0542 104° East 472 543 22,700 -2,160 Descending Washington Center
08:48AM 39.3867 -78.9106 104° East 442 509 20,000 -2,220 Descending Washington Center
08:49AM 39.3614 -78.7697 103° East 415 478 18,200 -1,680 Descending Washington Center
08:50AM 39.3356 -78.6344 104° East 392 451 16,600 -1,860 Descending Washington Center
08:51AM 39.3139 -78.5022 102° East 382 440 14,500 -1,920 Descending Washington Center
08:52AM 39.2878 -78.3750 105° East 376 433 12,900 -1,440 Descending Washington Center
08:53AM 39.2144 -78.3000 142° Southeast 309 356 11,700 -1,440 Descending Washington Center
08:54AM 39.1319 -78.2594 159° South 304 350 10,100 -1,440 Descending Washington Center
08:55AM 39.0617 -78.2275 161° South 304 350 8,800 -1,380 Descending Washington Center
08:56AM 38.9856 -78.1872 158° South 299 344 7,400 -900 Descending Washington Center
08:57AM 38.9133 -78.1528 160° South 289 333 7,000 -780 Descending Washington Center
08:58AM 38.8411 -78.1156 158° South 289 333 5,900 -1,020 Descending Washington Center
08:59AM 38.7669 -78.0758 157° South 289 333 5,000 -480 Descending Washington Center
09:00AM 38.7247 -77.9919 123° Southeast 279 321 5,000  Level Washington Center
09:02AM 38.7167 -77.8000 93° East 282 325 5,000  Level Potomac TRACON
09:03AM 38.7167 -77.7000 90° East 275 316 5,000  Level Potomac TRACON
09:04AM 38.7500 -77.6167 63° Northeast 241 277 5,000 -540 Level Potomac TRACON
09:04AM 38.7667 -77.5500 72° East 231 266 4,000 -1,140 Descending Potomac TRACON